Masontown, Pennsylvania
Current Conditions -  °F | °C
As of 2:03 AM on Friday 28 Nov 2014 (Local Time) from KMGW Reporting Station
Scattered Clouds Scattered Clouds  
Wind Chill: 24°   Ceiling: Unl
Heat Index: 29°   Visibility: 10mi
Dew Point: 19°   Wind: 5mph
Humidity: 67%   Direction: NA
Pressure: 30.24"   Gusts: NA
Location:  39.85°N, 79.9°W
Report Text: KMGW 280703Z AUTO VRB04KT 10SM FEW024 SCT042 M02/M07 A3024 RMK AO2 T10171072 TSNO
Loading
Personal Weather Stations






























Interactive Weather Map New forecast layout! Learn more

10-Day Weather Forecast

Advertisements
Track Severe Weather on mobile